This is the latest recevied weather packets stored in our database for station/object OK1JRA-6. If no packets are shown the sender has not sent any weather packets the latest 10 day(s).
| Time | Temp. | Humidity | Pressure | Rain* | Wind** | Luminosity | Snow |
|---|---|---|---|---|---|---|---|
| 1787477151 | 21.11° C | 48% | 1024.4 hPa | 0 mm | - | - | - |
| 1787477151 | 21.11° C | 48% | 1024.4 hPa | 0 mm | - | - | - |
| 1787476845 | 21.11° C | 46% | 1024.4 hPa | 0 mm | - | - | - |
| 1787476845 | 21.11° C | 46% | 1024.4 hPa | 0 mm | - | - | - |
| 1787476539 | 21.11° C | 49% | 1024.4 hPa | 0 mm | - | - | - |
| 1787476539 | 21.11° C | 49% | 1024.4 hPa | 0 mm | - | - | - |
| 1787476236 | 20.56° C | 49% | 1024.3 hPa | 0 mm | - | - | - |
| 1787476232 | 20.56° C | 49% | 1024.3 hPa | 0 mm | - | - | - |
| 1787476232 | 20.56° C | 49% | 1024.3 hPa | 0 mm | - | - | - |
| 1787475926 | 20.56° C | 47% | 1024.3 hPa | 0 mm | - | - | - |
| 1787475620 | 19.44° C | 52% | 1024.3 hPa | 0 mm | - | - | - |
| 1787475314 | 18.33° C | 55% | 1024.4 hPa | 0 mm | - | - | - |
| 1787475008 | 17.78° C | 57% | 1024.3 hPa | 0 mm | - | - | - |
| 1787474701 | 17.78° C | 57% | 1024.3 hPa | 0 mm | - | - | - |
| 1787474395 | 17.22° C | 57% | 1024.4 hPa | 0 mm | - | - | - |
| 1787474089 | 17.22° C | 58% | 1024.4 hPa | 0 mm | - | - | - |
| 1787473783 | 16.67° C | 59% | 1024.4 hPa | 0 mm | - | - | - |
| 1787473783 | 16.67° C | 59% | 1024.4 hPa | 0 mm | - | - | - |
| 1787473477 | 16.67° C | 62% | 1024.3 hPa | 0 mm | - | - | - |
| 1787473477 | 16.67° C | 62% | 1024.3 hPa | 0 mm | - | - | - |
| 1787473171 | 16.11° C | 63% | 1024.4 hPa | 0 mm | - | - | - |
| 1787473170 | 16.11° C | 63% | 1024.4 hPa | 0 mm | - | - | - |
| 1787472864 | 16.11° C | 63% | 1024.4 hPa | 0 mm | - | - | - |
| 1787472864 | 16.11° C | 63% | 1024.4 hPa | 0 mm | - | - | - |
| 1787472558 | 15.56° C | 65% | 1024.3 hPa | 0 mm | - | - | - |
* Rain latest hour (hover to see other rain measurements)
** Current wind speed in m/s (hover to see current wind gust speed)